SNDH weather

Aba Airport
Barreiras, Bahia, Brazil

Public forecast

Using degrees Celsius for public forecast. Weather courtesy of forecast.io.

Closest aviation weather report (METAR) to Aba Airport

Closest report is Bom Jesus da Lapa Airport, 115.8 nm (214.5 km) SE. Retrieved 2020/06/06 16:00 UTC (40 minutes ago):

SBLP 061600Z AUTO 19006KT 140V290 CAVOK 29/17 Q1017

Closest aviation forecast (TAF) to Aba Airport

Forecast is more than 12 hours old.

Closest forecast is Bom Jesus da Lapa Airport, 115.8 nm (214.5 km) SE. Retrieved 2019/06/15 06:30 UTC (12 months ago):

TAF SBLP 150400Z 1506/1518 32005KT 9999 SCT030 TN29/1508Z TX36/1518Z RMK PED